sensor_id;sensor_type;location;lat;lon;timestamp;temperature;humidity
22288;DHT22;11312;51.464;6.968;2023-07-24T00:00:34;17.90;99.90
22288;DHT22;11312;51.464;6.968;2023-07-24T00:03:01;17.90;99.90
22288;DHT22;11312;51.464;6.968;2023-07-24T00:05:27;17.90;99.90
22288;DHT22;11312;51.464;6.968;2023-07-24T00:07:53;17.80;99.90
22288;DHT22;11312;51.464;6.968;2023-07-24T00:10:18;17.80;99.90
22288;DHT22;11312;51.464;6.968;2023-07-24T00:12:44;17.80;99.90
22288;DHT22;11312;51.464;6.968;2023-07-24T00:15:10;17.70;99.90
22288;DHT22;11312;51.464;6.968;2023-07-24T00:17:35;17.80;99.90
22288;DHT22;11312;51.464;6.968;2023-07-24T00:20:01;17.80;99.90
22288;DHT22;11312;51.464;6.968;2023-07-24T00:22:26;17.80;99.90
22288;DHT22;11312;51.464;6.968;2023-07-24T00:24:52;17.80;99.90
22288;DHT22;11312;51.464;6.968;2023-07-24T00:27:17;17.90;99.90
22288;DHT22;11312;51.464;6.968;2023-07-24T00:29:43;17.80;99.90
22288;DHT22;11312;51.464;6.968;2023-07-24T00:32:09;17.80;99.90
22288;DHT22;11312;51.464;6.968;2023-07-24T00:34:34;17.80;99.90
22288;DHT22;11312;51.464;6.968;2023-07-24T00:37:00;17.70;99.90
22288;DHT22;11312;51.464;6.968;2023-07-24T00:39:25;17.70;99.90
22288;DHT22;11312;51.464;6.968;2023-07-24T00:41:54;17.70;99.90
22288;DHT22;11312;51.464;6.968;2023-07-24T00:44:20;17.80;99.90
22288;DHT22;11312;51.464;6.968;2023-07-24T00:46:45;17.80;99.90
22288;DHT22;11312;51.464;6.968;2023-07-24T00:49:11;17.80;99.90
22288;DHT22;11312;51.464;6.968;2023-07-24T00:51:38;17.70;99.90
22288;DHT22;11312;51.464;6.968;2023-07-24T00:54:04;17.70;99.90
22288;DHT22;11312;51.464;6.968;2023-07-24T00:56:31;17.70;99.90
22288;DHT22;11312;51.464;6.968;2023-07-24T00:58:58;17.70;99.90
22288;DHT22;11312;51.464;6.968;2023-07-24T01:01:25;17.70;99.90
22288;DHT22;11312;51.464;6.968;2023-07-24T01:03:51;17.70;99.90
22288;DHT22;11312;51.464;6.968;2023-07-24T01:06:17;17.60;99.90
22288;DHT22;11312;51.464;6.968;2023-07-24T01:08:43;17.60;99.90
22288;DHT22;11312;51.464;6.968;2023-07-24T01:11:19;17.60;99.90
22288;DHT22;11312;51.464;6.968;2023-07-24T01:13:57;17.50;99.90
22288;DHT22;11312;51.464;6.968;2023-07-24T01:16:26;17.60;99.90
22288;DHT22;11312;51.464;6.968;2023-07-24T01:18:55;17.60;99.90
22288;DHT22;11312;51.464;6.968;2023-07-24T01:21:32;17.60;99.90
22288;DHT22;11312;51.464;6.968;2023-07-24T01:24:23;17.60;99.90
22288;DHT22;11312;51.464;6.968;2023-07-24T01:26:54;17.60;99.90
22288;DHT22;11312;51.464;6.968;2023-07-24T01:29:20;17.70;99.90
22288;DHT22;11312;51.464;6.968;2023-07-24T01:31:45;17.60;99.90
22288;DHT22;11312;51.464;6.968;2023-07-24T01:34:11;17.70;99.90
22288;DHT22;11312;51.464;6.968;2023-07-24T01:36:37;17.60;99.90
22288;DHT22;11312;51.464;6.968;2023-07-24T01:39:03;17.60;99.90
22288;DHT22;11312;51.464;6.968;2023-07-24T01:41:28;17.60;99.90
22288;DHT22;11312;51.464;6.968;2023-07-24T01:43:54;17.60;99.90
22288;DHT22;11312;51.464;6.968;2023-07-24T01:46:20;17.60;99.90
22288;DHT22;11312;51.464;6.968;2023-07-24T01:48:45;17.70;99.90
22288;DHT22;11312;51.464;6.968;2023-07-24T01:51:12;17.70;99.90
22288;DHT22;11312;51.464;6.968;2023-07-24T01:53:37;17.70;99.90
22288;DHT22;11312;51.464;6.968;2023-07-24T01:56:03;17.60;99.90
22288;DHT22;11312;51.464;6.968;2023-07-24T01:58:28;17.60;99.90
22288;DHT22;11312;51.464;6.968;2023-07-24T02:00:57;17.60;99.90
22288;DHT22;11312;51.464;6.968;2023-07-24T02:03:23;17.50;99.90
22288;DHT22;11312;51.464;6.968;2023-07-24T02:05:51;17.70;99.90
22288;DHT22;11312;51.464;6.968;2023-07-24T02:08:17;17.70;99.90
22288;DHT22;11312;51.464;6.968;2023-07-24T02:10:43;17.70;99.90
22288;DHT22;11312;51.464;6.968;2023-07-24T02:13:09;17.70;99.90
22288;DHT22;11312;51.464;6.968;2023-07-24T02:15:35;17.70;99.90
22288;DHT22;11312;51.464;6.968;2023-07-24T02:18:01;17.70;99.90
22288;DHT22;11312;51.464;6.968;2023-07-24T02:20:27;17.70;99.90
22288;DHT22;11312;51.464;6.968;2023-07-24T02:22:52;17.70;99.90
22288;DHT22;11312;51.464;6.968;2023-07-24T02:25:18;17.70;99.90
22288;DHT22;11312;51.464;6.968;2023-07-24T02:27:44;17.70;99.90
22288;DHT22;11312;51.464;6.968;2023-07-24T02:30:10;17.80;99.90
22288;DHT22;11312;51.464;6.968;2023-07-24T02:32:35;17.80;99.90
22288;DHT22;11312;51.464;6.968;2023-07-24T02:35:01;17.80;99.90
22288;DHT22;11312;51.464;6.968;2023-07-24T02:37:26;17.80;99.90
22288;DHT22;11312;51.464;6.968;2023-07-24T02:39:52;17.80;99.90
22288;DHT22;11312;51.464;6.968;2023-07-24T02:42:18;17.80;99.90
22288;DHT22;11312;51.464;6.968;2023-07-24T02:44:44;17.80;99.90
22288;DHT22;11312;51.464;6.968;2023-07-24T02:47:09;17.80;99.90
22288;DHT22;11312;51.464;6.968;2023-07-24T02:49:35;17.90;99.90
22288;DHT22;11312;51.464;6.968;2023-07-24T02:52:01;17.90;99.90
22288;DHT22;11312;51.464;6.968;2023-07-24T02:54:26;17.90;99.90
22288;DHT22;11312;51.464;6.968;2023-07-24T02:56:52;18.00;99.90
22288;DHT22;11312;51.464;6.968;2023-07-24T02:59:18;17.90;99.90
22288;DHT22;11312;51.464;6.968;2023-07-24T03:01:44;17.90;99.90
22288;DHT22;11312;51.464;6.968;2023-07-24T03:04:09;18.20;99.90
22288;DHT22;11312;51.464;6.968;2023-07-24T03:06:35;18.20;99.90
22288;DHT22;11312;51.464;6.968;2023-07-24T03:09:01;18.10;99.90
22288;DHT22;11312;51.464;6.968;2023-07-24T03:11:26;18.00;99.90
22288;DHT22;11312;51.464;6.968;2023-07-24T03:13:52;17.90;99.90
22288;DHT22;11312;51.464;6.968;2023-07-24T03:16:18;17.90;99.90
22288;DHT22;11312;51.464;6.968;2023-07-24T03:18:44;17.90;99.90
22288;DHT22;11312;51.464;6.968;2023-07-24T03:21:10;17.90;99.90
22288;DHT22;11312;51.464;6.968;2023-07-24T03:23:36;17.90;99.90
22288;DHT22;11312;51.464;6.968;2023-07-24T03:26:01;17.90;99.90
22288;DHT22;11312;51.464;6.968;2023-07-24T03:28:27;17.90;99.90
22288;DHT22;11312;51.464;6.968;2023-07-24T03:30:53;17.90;99.90
22288;DHT22;11312;51.464;6.968;2023-07-24T03:33:19;18.00;99.90
22288;DHT22;11312;51.464;6.968;2023-07-24T03:35:45;17.90;99.90
22288;DHT22;11312;51.464;6.968;2023-07-24T03:38:11;17.90;99.90
22288;DHT22;11312;51.464;6.968;2023-07-24T03:40:36;17.80;99.90
22288;DHT22;11312;51.464;6.968;2023-07-24T03:43:02;17.80;99.90
22288;DHT22;11312;51.464;6.968;2023-07-24T03:45:27;17.80;99.90
22288;DHT22;11312;51.464;6.968;2023-07-24T03:47:53;17.80;99.90
22288;DHT22;11312;51.464;6.968;2023-07-24T03:50:18;17.80;99.90
22288;DHT22;11312;51.464;6.968;2023-07-24T03:52:44;17.70;99.90
22288;DHT22;11312;51.464;6.968;2023-07-24T03:55:10;17.80;99.90
22288;DHT22;11312;51.464;6.968;2023-07-24T03:57:36;17.80;99.90
22288;DHT22;11312;51.464;6.968;2023-07-24T04:00:02;17.80;99.90
22288;DHT22;11312;51.464;6.968;2023-07-24T04:02:28;17.80;99.90
22288;DHT22;11312;51.464;6.968;2023-07-24T04:04:53;17.80;99.90
22288;DHT22;11312;51.464;6.968;2023-07-24T04:07:19;17.80;99.90
22288;DHT22;11312;51.464;6.968;2023-07-24T04:09:45;17.80;99.90
22288;DHT22;11312;51.464;6.968;2023-07-24T04:12:10;17.80;99.90
22288;DHT22;11312;51.464;6.968;2023-07-24T04:14:36;17.80;99.90
22288;DHT22;11312;51.464;6.968;2023-07-24T04:17:01;17.80;99.90
22288;DHT22;11312;51.464;6.968;2023-07-24T04:19:27;17.80;99.90
22288;DHT22;11312;51.464;6.968;2023-07-24T04:21:53;17.80;99.90
22288;DHT22;11312;51.464;6.968;2023-07-24T04:24:18;17.80;99.90
22288;DHT22;11312;51.464;6.968;2023-07-24T04:26:44;17.80;99.90
22288;DHT22;11312;51.464;6.968;2023-07-24T04:29:10;17.80;99.90
22288;DHT22;11312;51.464;6.968;2023-07-24T04:31:35;17.80;99.90
22288;DHT22;11312;51.464;6.968;2023-07-24T04:34:01;17.80;99.90
22288;DHT22;11312;51.464;6.968;2023-07-24T04:36:27;17.80;99.90
22288;DHT22;11312;51.464;6.968;2023-07-24T04:38:52;17.80;99.90
22288;DHT22;11312;51.464;6.968;2023-07-24T04:41:18;17.80;99.90
22288;DHT22;11312;51.464;6.968;2023-07-24T04:43:43;17.70;99.90
22288;DHT22;11312;51.464;6.968;2023-07-24T04:46:09;17.70;99.90
22288;DHT22;11312;51.464;6.968;2023-07-24T04:48:34;17.70;99.90
22288;DHT22;11312;51.464;6.968;2023-07-24T04:51:00;17.70;99.90
22288;DHT22;11312;51.464;6.968;2023-07-24T04:53:26;17.70;99.90
22288;DHT22;11312;51.464;6.968;2023-07-24T04:55:51;17.70;99.90
22288;DHT22;11312;51.464;6.968;2023-07-24T04:58:17;17.80;99.90
22288;DHT22;11312;51.464;6.968;2023-07-24T05:00:42;17.80;99.90
22288;DHT22;11312;51.464;6.968;2023-07-24T05:03:08;17.80;99.90
22288;DHT22;11312;51.464;6.968;2023-07-24T05:05:37;17.80;99.90
22288;DHT22;11312;51.464;6.968;2023-07-24T05:08:03;17.90;99.90
22288;DHT22;11312;51.464;6.968;2023-07-24T05:10:28;17.90;99.90
22288;DHT22;11312;51.464;6.968;2023-07-24T05:12:54;17.90;99.90
22288;DHT22;11312;51.464;6.968;2023-07-24T05:15:22;17.90;99.90
22288;DHT22;11312;51.464;6.968;2023-07-24T05:17:48;17.90;99.90
22288;DHT22;11312;51.464;6.968;2023-07-24T05:20:14;17.90;99.90
22288;DHT22;11312;51.464;6.968;2023-07-24T05:22:39;17.90;99.90
22288;DHT22;11312;51.464;6.968;2023-07-24T05:25:05;18.00;99.90
22288;DHT22;11312;51.464;6.968;2023-07-24T05:27:31;18.00;99.90
22288;DHT22;11312;51.464;6.968;2023-07-24T05:29:56;17.90;99.90
22288;DHT22;11312;51.464;6.968;2023-07-24T05:32:22;17.90;99.90
22288;DHT22;11312;51.464;6.968;2023-07-24T05:34:48;17.90;99.90
22288;DHT22;11312;51.464;6.968;2023-07-24T05:37:13;17.90;99.90
22288;DHT22;11312;51.464;6.968;2023-07-24T05:39:39;17.90;99.90
22288;DHT22;11312;51.464;6.968;2023-07-24T05:42:04;18.00;99.90
22288;DHT22;11312;51.464;6.968;2023-07-24T05:44:30;18.00;99.90
22288;DHT22;11312;51.464;6.968;2023-07-24T05:46:56;18.30;99.90
22288;DHT22;11312;51.464;6.968;2023-07-24T05:49:21;18.40;99.90
22288;DHT22;11312;51.464;6.968;2023-07-24T05:51:47;18.30;99.90
22288;DHT22;11312;51.464;6.968;2023-07-24T05:54:13;18.30;99.90
22288;DHT22;11312;51.464;6.968;2023-07-24T05:56:38;18.20;99.90
22288;DHT22;11312;51.464;6.968;2023-07-24T05:59:04;18.20;99.90
22288;DHT22;11312;51.464;6.968;2023-07-24T06:01:29;18.30;99.90
22288;DHT22;11312;51.464;6.968;2023-07-24T06:03:55;18.30;99.90
22288;DHT22;11312;51.464;6.968;2023-07-24T06:06:20;18.30;99.90
22288;DHT22;11312;51.464;6.968;2023-07-24T06:08:46;18.50;99.90
22288;DHT22;11312;51.464;6.968;2023-07-24T06:11:13;18.60;99.90
22288;DHT22;11312;51.464;6.968;2023-07-24T06:13:38;18.60;99.90
22288;DHT22;11312;51.464;6.968;2023-07-24T06:16:04;18.70;99.90
22288;DHT22;11312;51.464;6.968;2023-07-24T06:18:30;18.80;99.90
22288;DHT22;11312;51.464;6.968;2023-07-24T06:20:55;18.80;99.90
22288;DHT22;11312;51.464;6.968;2023-07-24T06:23:21;18.80;99.90
22288;DHT22;11312;51.464;6.968;2023-07-24T06:25:46;18.60;99.90
22288;DHT22;11312;51.464;6.968;2023-07-24T06:28:12;18.70;99.90
22288;DHT22;11312;51.464;6.968;2023-07-24T06:30:38;18.50;99.90
22288;DHT22;11312;51.464;6.968;2023-07-24T06:33:04;18.50;99.90
22288;DHT22;11312;51.464;6.968;2023-07-24T06:35:30;18.50;99.90
22288;DHT22;11312;51.464;6.968;2023-07-24T06:37:55;18.50;99.90
22288;DHT22;11312;51.464;6.968;2023-07-24T06:40:21;18.60;99.90
22288;DHT22;11312;51.464;6.968;2023-07-24T06:42:47;18.60;99.90
22288;DHT22;11312;51.464;6.968;2023-07-24T06:45:12;18.90;99.90
22288;DHT22;11312;51.464;6.968;2023-07-24T06:47:38;18.90;99.90
22288;DHT22;11312;51.464;6.968;2023-07-24T06:50:04;18.80;99.90
22288;DHT22;11312;51.464;6.968;2023-07-24T06:52:31;18.80;99.90
22288;DHT22;11312;51.464;6.968;2023-07-24T06:54:57;18.80;99.90
22288;DHT22;11312;51.464;6.968;2023-07-24T06:57:24;18.90;99.90
22288;DHT22;11312;51.464;6.968;2023-07-24T06:59:49;18.80;99.90
22288;DHT22;11312;51.464;6.968;2023-07-24T07:02:15;18.90;99.90
22288;DHT22;11312;51.464;6.968;2023-07-24T07:04:41;18.90;99.90
22288;DHT22;11312;51.464;6.968;2023-07-24T07:07:06;18.90;99.90
22288;DHT22;11312;51.464;6.968;2023-07-24T07:09:32;18.90;99.90
22288;DHT22;11312;51.464;6.968;2023-07-24T07:11:58;19.00;99.90
22288;DHT22;11312;51.464;6.968;2023-07-24T07:14:24;19.10;99.90
22288;DHT22;11312;51.464;6.968;2023-07-24T07:16:49;19.00;99.90
22288;DHT22;11312;51.464;6.968;2023-07-24T07:19:15;19.00;99.90
22288;DHT22;11312;51.464;6.968;2023-07-24T07:21:41;18.90;99.90
22288;DHT22;11312;51.464;6.968;2023-07-24T07:24:06;18.90;99.90
22288;DHT22;11312;51.464;6.968;2023-07-24T07:26:32;18.80;99.90
22288;DHT22;11312;51.464;6.968;2023-07-24T07:28:58;18.70;99.90
22288;DHT22;11312;51.464;6.968;2023-07-24T07:31:24;18.70;99.90
22288;DHT22;11312;51.464;6.968;2023-07-24T07:33:49;18.70;99.90
22288;DHT22;11312;51.464;6.968;2023-07-24T07:36:15;18.80;99.90
22288;DHT22;11312;51.464;6.968;2023-07-24T07:38:41;18.80;99.90
22288;DHT22;11312;51.464;6.968;2023-07-24T07:41:06;18.80;99.90
22288;DHT22;11312;51.464;6.968;2023-07-24T07:43:32;18.90;99.90
22288;DHT22;11312;51.464;6.968;2023-07-24T07:45:58;18.80;99.90
22288;DHT22;11312;51.464;6.968;2023-07-24T07:48:24;18.70;99.90
22288;DHT22;11312;51.464;6.968;2023-07-24T07:50:53;18.70;99.90
22288;DHT22;11312;51.464;6.968;2023-07-24T07:53:19;18.70;99.90
22288;DHT22;11312;51.464;6.968;2023-07-24T07:55:44;18.70;99.90
22288;DHT22;11312;51.464;6.968;2023-07-24T07:58:10;18.70;99.90
22288;DHT22;11312;51.464;6.968;2023-07-24T08:00:35;18.70;99.90
22288;DHT22;11312;51.464;6.968;2023-07-24T08:03:01;18.70;99.90
22288;DHT22;11312;51.464;6.968;2023-07-24T08:05:27;18.60;99.90
22288;DHT22;11312;51.464;6.968;2023-07-24T08:07:53;18.50;99.90
22288;DHT22;11312;51.464;6.968;2023-07-24T08:10:19;18.50;99.90
22288;DHT22;11312;51.464;6.968;2023-07-24T08:12:44;18.40;99.90
22288;DHT22;11312;51.464;6.968;2023-07-24T08:15:10;18.40;99.90
22288;DHT22;11312;51.464;6.968;2023-07-24T08:17:36;18.40;99.90
22288;DHT22;11312;51.464;6.968;2023-07-24T08:20:02;18.40;99.90
22288;DHT22;11312;51.464;6.968;2023-07-24T08:22:28;18.60;99.90
22288;DHT22;11312;51.464;6.968;2023-07-24T08:24:53;18.50;99.90
22288;DHT22;11312;51.464;6.968;2023-07-24T08:27:19;18.60;99.90
22288;DHT22;11312;51.464;6.968;2023-07-24T08:29:45;18.80;99.90
22288;DHT22;11312;51.464;6.968;2023-07-24T08:32:10;19.10;99.90
22288;DHT22;11312;51.464;6.968;2023-07-24T08:34:36;20.70;99.90
22288;DHT22;11312;51.464;6.968;2023-07-24T08:37:02;20.80;99.90
22288;DHT22;11312;51.464;6.968;2023-07-24T08:39:27;20.60;99.90
22288;DHT22;11312;51.464;6.968;2023-07-24T08:41:53;20.60;99.90
22288;DHT22;11312;51.464;6.968;2023-07-24T08:44:18;20.50;99.90
22288;DHT22;11312;51.464;6.968;2023-07-24T08:46:45;20.10;99.90
22288;DHT22;11312;51.464;6.968;2023-07-24T08:49:13;19.70;99.90
22288;DHT22;11312;51.464;6.968;2023-07-24T08:51:40;19.30;99.90
22288;DHT22;11312;51.464;6.968;2023-07-24T08:54:06;19.20;99.90
22288;DHT22;11312;51.464;6.968;2023-07-24T08:56:33;19.40;99.90
22288;DHT22;11312;51.464;6.968;2023-07-24T08:58:59;19.30;99.90
22288;DHT22;11312;51.464;6.968;2023-07-24T09:01:25;19.20;99.90
22288;DHT22;11312;51.464;6.968;2023-07-24T09:03:51;19.90;99.90
22288;DHT22;11312;51.464;6.968;2023-07-24T09:06:16;20.50;99.90
22288;DHT22;11312;51.464;6.968;2023-07-24T09:08:43;21.90;99.90
22288;DHT22;11312;51.464;6.968;2023-07-24T09:11:10;22.00;99.90
22288;DHT22;11312;51.464;6.968;2023-07-24T09:13:42;23.10;99.90
22288;DHT22;11312;51.464;6.968;2023-07-24T09:16:08;22.00;99.90
22288;DHT22;11312;51.464;6.968;2023-07-24T09:18:40;21.70;99.90
22288;DHT22;11312;51.464;6.968;2023-07-24T09:21:07;20.80;99.90
22288;DHT22;11312;51.464;6.968;2023-07-24T09:23:32;20.50;99.90
22288;DHT22;11312;51.464;6.968;2023-07-24T09:25:58;20.10;99.90
22288;DHT22;11312;51.464;6.968;2023-07-24T09:28:24;20.00;99.90
22288;DHT22;11312;51.464;6.968;2023-07-24T09:30:58;19.80;99.90
22288;DHT22;11312;51.464;6.968;2023-07-24T09:33:37;19.60;99.90
22288;DHT22;11312;51.464;6.968;2023-07-24T09:36:05;19.50;99.90
22288;DHT22;11312;51.464;6.968;2023-07-24T09:38:30;19.30;99.90
22288;DHT22;11312;51.464;6.968;2023-07-24T09:40:57;19.40;99.90
22288;DHT22;11312;51.464;6.968;2023-07-24T09:43:23;19.40;99.90
22288;DHT22;11312;51.464;6.968;2023-07-24T09:45:50;19.40;99.90
22288;DHT22;11312;51.464;6.968;2023-07-24T09:48:17;19.70;99.90
22288;DHT22;11312;51.464;6.968;2023-07-24T09:50:46;19.70;99.90
22288;DHT22;11312;51.464;6.968;2023-07-24T09:56:01;20.00;99.90
22288;DHT22;11312;51.464;6.968;2023-07-24T09:58:26;19.90;99.90
22288;DHT22;11312;51.464;6.968;2023-07-24T10:00:53;19.80;99.90
22288;DHT22;11312;51.464;6.968;2023-07-24T10:03:20;19.70;99.90
22288;DHT22;11312;51.464;6.968;2023-07-24T10:05:47;19.70;99.90
22288;DHT22;11312;51.464;6.968;2023-07-24T10:08:17;19.70;99.90
22288;DHT22;11312;51.464;6.968;2023-07-24T10:10:44;19.90;99.90
22288;DHT22;11312;51.464;6.968;2023-07-24T10:13:11;19.90;99.90
22288;DHT22;11312;51.464;6.968;2023-07-24T10:15:41;20.00;99.90
22288;DHT22;11312;51.464;6.968;2023-07-24T10:18:08;19.80;99.90
22288;DHT22;11312;51.464;6.968;2023-07-24T10:20:41;20.00;99.90
22288;DHT22;11312;51.464;6.968;2023-07-24T10:23:15;20.20;99.90
22288;DHT22;11312;51.464;6.968;2023-07-24T10:25:44;20.90;99.90
22288;DHT22;11312;51.464;6.968;2023-07-24T10:28:12;22.20;99.90
22288;DHT22;11312;51.464;6.968;2023-07-24T10:30:39;22.80;99.90
22288;DHT22;11312;51.464;6.968;2023-07-24T10:33:13;22.40;99.90
22288;DHT22;11312;51.464;6.968;2023-07-24T10:35:43;22.00;99.90
22288;DHT22;11312;51.464;6.968;2023-07-24T10:38:10;22.50;99.90
22288;DHT22;11312;51.464;6.968;2023-07-24T10:40:36;22.20;99.90
22288;DHT22;11312;51.464;6.968;2023-07-24T10:43:20;21.80;99.90
22288;DHT22;11312;51.464;6.968;2023-07-24T10:45:51;21.30;99.90
22288;DHT22;11312;51.464;6.968;2023-07-24T10:48:18;21.40;99.90
22288;DHT22;11312;51.464;6.968;2023-07-24T10:50:46;21.20;99.90
22288;DHT22;11312;51.464;6.968;2023-07-24T10:53:14;20.60;99.90
22288;DHT22;11312;51.464;6.968;2023-07-24T10:55:42;20.30;99.90
22288;DHT22;11312;51.464;6.968;2023-07-24T10:58:08;20.30;99.90
22288;DHT22;11312;51.464;6.968;2023-07-24T11:00:34;20.20;99.90
22288;DHT22;11312;51.464;6.968;2023-07-24T11:02:59;20.30;99.90
22288;DHT22;11312;51.464;6.968;2023-07-24T11:05:25;20.30;99.90
22288;DHT22;11312;51.464;6.968;2023-07-24T11:07:51;20.10;99.90
22288;DHT22;11312;51.464;6.968;2023-07-24T11:10:21;20.20;99.90
22288;DHT22;11312;51.464;6.968;2023-07-24T11:12:47;20.20;99.90
22288;DHT22;11312;51.464;6.968;2023-07-24T11:15:14;20.30;99.90
22288;DHT22;11312;51.464;6.968;2023-07-24T11:17:41;20.40;99.90
22288;DHT22;11312;51.464;6.968;2023-07-24T11:20:13;20.30;99.90
22288;DHT22;11312;51.464;6.968;2023-07-24T11:22:40;20.20;99.90
22288;DHT22;11312;51.464;6.968;2023-07-24T11:25:06;20.10;99.90
22288;DHT22;11312;51.464;6.968;2023-07-24T11:27:32;20.00;99.90
22288;DHT22;11312;51.464;6.968;2023-07-24T11:29:58;19.90;99.90
22288;DHT22;11312;51.464;6.968;2023-07-24T11:32:24;19.70;99.90
22288;DHT22;11312;51.464;6.968;2023-07-24T11:34:50;19.70;99.90
22288;DHT22;11312;51.464;6.968;2023-07-24T11:37:17;19.50;99.90
22288;DHT22;11312;51.464;6.968;2023-07-24T11:40:03;19.20;99.90
22288;DHT22;11312;51.464;6.968;2023-07-24T11:42:40;18.90;99.90
22288;DHT22;11312;51.464;6.968;2023-07-24T11:45:07;18.80;99.90
22288;DHT22;11312;51.464;6.968;2023-07-24T11:47:44;18.90;99.90
22288;DHT22;11312;51.464;6.968;2023-07-24T11:50:10;18.40;99.90
22288;DHT22;11312;51.464;6.968;2023-07-24T11:52:45;17.70;99.90
22288;DHT22;11312;51.464;6.968;2023-07-24T11:55:12;17.70;99.90
22288;DHT22;11312;51.464;6.968;2023-07-24T11:57:38;17.70;99.90
22288;DHT22;11312;51.464;6.968;2023-07-24T12:00:06;17.70;99.90
22288;DHT22;11312;51.464;6.968;2023-07-24T12:02:34;17.70;99.90
22288;DHT22;11312;51.464;6.968;2023-07-24T12:05:00;17.40;99.90
22288;DHT22;11312;51.464;6.968;2023-07-24T12:07:32;17.30;99.90
22288;DHT22;11312;51.464;6.968;2023-07-24T12:09:58;17.10;99.90
22288;DHT22;11312;51.464;6.968;2023-07-24T12:12:23;17.20;99.90
22288;DHT22;11312;51.464;6.968;2023-07-24T12:14:49;17.10;99.90
22288;DHT22;11312;51.464;6.968;2023-07-24T12:17:18;17.10;99.90
22288;DHT22;11312;51.464;6.968;2023-07-24T12:19:44;17.20;99.90
22288;DHT22;11312;51.464;6.968;2023-07-24T12:22:09;17.30;99.90
22288;DHT22;11312;51.464;6.968;2023-07-24T12:24:35;17.50;99.90
22288;DHT22;11312;51.464;6.968;2023-07-24T12:27:00;17.80;99.90
22288;DHT22;11312;51.464;6.968;2023-07-24T12:29:26;18.50;99.90
22288;DHT22;11312;51.464;6.968;2023-07-24T12:31:52;19.10;99.90
22288;DHT22;11312;51.464;6.968;2023-07-24T12:34:17;19.60;99.90
22288;DHT22;11312;51.464;6.968;2023-07-24T12:36:43;19.70;99.90
22288;DHT22;11312;51.464;6.968;2023-07-24T12:39:09;20.20;99.90
22288;DHT22;11312;51.464;6.968;2023-07-24T12:41:34;20.00;99.90
22288;DHT22;11312;51.464;6.968;2023-07-24T12:44:00;19.60;99.90
22288;DHT22;11312;51.464;6.968;2023-07-24T12:46:25;20.20;99.90
22288;DHT22;11312;51.464;6.968;2023-07-24T12:48:51;19.40;99.90
22288;DHT22;11312;51.464;6.968;2023-07-24T12:51:17;19.20;99.90
22288;DHT22;11312;51.464;6.968;2023-07-24T12:53:42;18.90;99.90
22288;DHT22;11312;51.464;6.968;2023-07-24T12:56:08;19.00;99.90
22288;DHT22;11312;51.464;6.968;2023-07-24T12:58:34;19.50;99.90
22288;DHT22;11312;51.464;6.968;2023-07-24T13:00:59;19.80;99.90
22288;DHT22;11312;51.464;6.968;2023-07-24T13:03:25;19.70;99.90
22288;DHT22;11312;51.464;6.968;2023-07-24T13:05:50;20.60;99.90
22288;DHT22;11312;51.464;6.968;2023-07-24T13:08:16;21.10;99.90
22288;DHT22;11312;51.464;6.968;2023-07-24T13:10:42;21.30;99.90
22288;DHT22;11312;51.464;6.968;2023-07-24T13:13:07;21.10;99.90
22288;DHT22;11312;51.464;6.968;2023-07-24T13:15:34;20.80;99.90
22288;DHT22;11312;51.464;6.968;2023-07-24T13:18:00;21.00;99.90
22288;DHT22;11312;51.464;6.968;2023-07-24T13:20:25;21.60;99.90
22288;DHT22;11312;51.464;6.968;2023-07-24T13:22:51;22.00;99.90
22288;DHT22;11312;51.464;6.968;2023-07-24T13:25:17;21.10;99.90
22288;DHT22;11312;51.464;6.968;2023-07-24T13:27:42;21.80;99.90
22288;DHT22;11312;51.464;6.968;2023-07-24T13:30:08;22.70;99.90
22288;DHT22;11312;51.464;6.968;2023-07-24T13:32:34;23.10;99.90
22288;DHT22;11312;51.464;6.968;2023-07-24T13:34:59;23.30;99.90
22288;DHT22;11312;51.464;6.968;2023-07-24T13:37:26;23.50;99.90
22288;DHT22;11312;51.464;6.968;2023-07-24T13:39:51;24.20;99.90
22288;DHT22;11312;51.464;6.968;2023-07-24T13:42:17;23.40;99.90
22288;DHT22;11312;51.464;6.968;2023-07-24T13:44:42;23.70;99.90
22288;DHT22;11312;51.464;6.968;2023-07-24T13:47:08;23.50;99.90
22288;DHT22;11312;51.464;6.968;2023-07-24T13:49:34;23.10;99.90
22288;DHT22;11312;51.464;6.968;2023-07-24T13:51:59;23.50;99.90
22288;DHT22;11312;51.464;6.968;2023-07-24T13:54:25;23.10;99.90
22288;DHT22;11312;51.464;6.968;2023-07-24T13:56:51;23.50;99.90
22288;DHT22;11312;51.464;6.968;2023-07-24T13:59:16;23.30;99.90
22288;DHT22;11312;51.464;6.968;2023-07-24T14:01:42;23.20;99.90
22288;DHT22;11312;51.464;6.968;2023-07-24T14:04:07;22.20;99.90
22288;DHT22;11312;51.464;6.968;2023-07-24T14:06:33;21.60;99.90
22288;DHT22;11312;51.464;6.968;2023-07-24T14:08:59;21.50;99.90
22288;DHT22;11312;51.464;6.968;2023-07-24T14:11:24;22.10;99.90
22288;DHT22;11312;51.464;6.968;2023-07-24T14:13:52;22.00;99.90
22288;DHT22;11312;51.464;6.968;2023-07-24T14:16:17;21.50;99.90
22288;DHT22;11312;51.464;6.968;2023-07-24T14:18:43;21.60;99.90
22288;DHT22;11312;51.464;6.968;2023-07-24T14:21:08;21.70;99.90
22288;DHT22;11312;51.464;6.968;2023-07-24T14:23:35;21.60;99.90
22288;DHT22;11312;51.464;6.968;2023-07-24T14:26:00;21.30;99.90
22288;DHT22;11312;51.464;6.968;2023-07-24T14:28:26;21.10;99.90
22288;DHT22;11312;51.464;6.968;2023-07-24T14:30:52;21.10;99.90
22288;DHT22;11312;51.464;6.968;2023-07-24T14:33:17;21.50;99.90
22288;DHT22;11312;51.464;6.968;2023-07-24T14:35:43;21.70;99.90
22288;DHT22;11312;51.464;6.968;2023-07-24T14:38:09;21.80;99.90
22288;DHT22;11312;51.464;6.968;2023-07-24T14:40:34;21.80;99.90
22288;DHT22;11312;51.464;6.968;2023-07-24T14:43:00;21.50;99.90
22288;DHT22;11312;51.464;6.968;2023-07-24T14:45:26;21.40;99.90
22288;DHT22;11312;51.464;6.968;2023-07-24T14:47:51;21.10;99.90
22288;DHT22;11312;51.464;6.968;2023-07-24T14:50:17;20.90;99.90
22288;DHT22;11312;51.464;6.968;2023-07-24T14:52:42;20.70;99.90
22288;DHT22;11312;51.464;6.968;2023-07-24T14:55:09;20.70;99.90
22288;DHT22;11312;51.464;6.968;2023-07-24T14:57:35;20.70;99.90
22288;DHT22;11312;51.464;6.968;2023-07-24T15:00:01;20.80;99.90
22288;DHT22;11312;51.464;6.968;2023-07-24T15:02:28;20.90;99.90
22288;DHT22;11312;51.464;6.968;2023-07-24T15:04:54;21.30;99.90
22288;DHT22;11312;51.464;6.968;2023-07-24T15:07:19;22.00;99.90
22288;DHT22;11312;51.464;6.968;2023-07-24T15:09:45;22.50;99.90
22288;DHT22;11312;51.464;6.968;2023-07-24T15:12:10;22.30;99.90
22288;DHT22;11312;51.464;6.968;2023-07-24T15:14:36;21.70;99.90
22288;DHT22;11312;51.464;6.968;2023-07-24T15:17:02;21.30;99.90
22288;DHT22;11312;51.464;6.968;2023-07-24T15:19:27;21.40;99.90
22288;DHT22;11312;51.464;6.968;2023-07-24T15:21:53;21.40;99.90
22288;DHT22;11312;51.464;6.968;2023-07-24T15:24:19;21.50;99.90
22288;DHT22;11312;51.464;6.968;2023-07-24T15:26:45;21.40;99.90